Time;durP1;ratioP1;P1;durP2;ratioP2;P2;SDS_P1;SDS_P2;PMS_P1;PMS_P2;Temp;Humidity;BMP_temperature;BMP_pressure;BME280_temperature;BME280_humidity;BME280_pressure;Samples;Min_cycle;Max_cycle;Signal;HPM_P1;HPM_P2
2022/11/26 00:02:25;;;;;;;;;;;;;;;;;;5001503;28;19924;-58
2022/11/26 00:04:51;;;;;;;;;;;;;;;;;;4992002;28;19925;-58
2022/11/26 00:07:17;;;;;;;;;;;;;;;;;;5009678;28;19921;-58
2022/11/26 00:09:43;;;;;;;;;;;;;;;;;;4995338;28;20029;-58
2022/11/26 00:12:09;;;;;;;;;;;;;;;;;;4995409;28;19934;-58
2022/11/26 00:14:35;;;;;;;;;;;;;;;;;;4985046;28;19925;-58
2022/11/26 00:17:01;;;;;;;;;;;;;;;;;;4999462;28;19971;-58
2022/11/26 00:19:27;;;;;;;;;;;;;;;;;;4987345;28;19925;-58
2022/11/26 00:21:52;;;;;;;;;;;;;;;;;;4995278;28;22230;-58
2022/11/26 00:24:18;;;;;;;;;;;;;;;;;;4997267;28;19933;-58
2022/11/26 00:26:44;;;;;;;;;;;;;;;;;;5001141;28;19928;-59
2022/11/26 00:29:10;;;;;;;;;;;;;;;;;;4988015;28;19974;-59
2022/11/26 00:31:36;;;;;;;;;;;;;;;;;;4997078;28;19928;-58
2022/11/26 00:34:02;;;;;;;;;;;;;;;;;;4982145;28;19926;-59
2022/11/26 00:36:28;;;;;;;;;;;;;;;;;;4999096;28;19936;-58
2022/11/26 00:38:54;;;;;;;;;;;;;;;;;;4995126;28;19930;-58
2022/11/26 00:41:20;;;;;;;;;;;;;;;;;;5002856;28;20318;-58
2022/11/26 00:43:46;;;;;;;;;;;;;;;;;;4997879;28;19921;-58
2022/11/26 00:46:12;;;;;;;;;;;;;;;;;;5001053;28;19932;-58
2022/11/26 00:48:38;;;;;;;;;;;;;;;;;;4995997;28;20548;-58
2022/11/26 00:51:04;;;;;;;;;;;;;;;;;;4999947;28;19995;-58
2022/11/26 00:53:29;;;;;;;;;;;;;;;;;;5002349;28;20051;-58
2022/11/26 00:55:55;;;;;;;;;;;;;;;;;;4983568;28;19924;-58
2022/11/26 00:58:21;;;;;;;;;;;;;;;;;;4992206;28;19925;-58
2022/11/26 01:00:47;;;;;;;;;;;;;;;;;;4967013;28;20010;-59
2022/11/26 01:03:13;;;;;;;;;;;;;;;;;;4992879;28;19924;-58
2022/11/26 01:05:39;;;;;;;;;;;;;;;;;;4980104;28;19932;-58
2022/11/26 01:08:05;;;;;;;;;;;;;;;;;;4992196;28;19921;-59
2022/11/26 01:10:31;;;;;;;;;;;;;;;;;;4981837;28;20271;-58
2022/11/26 01:12:57;;;;;;;;;;;;;;;;;;4977101;28;19929;-58
2022/11/26 01:15:23;;;;;;;;;;;;;;;;;;4991378;28;20239;-58
2022/11/26 01:17:49;;;;;;;;;;;;;;;;;;4994767;28;19924;-58
2022/11/26 01:20:15;;;;;;;;;;;;;;;;;;4994344;28;19917;-58
2022/11/26 01:22:41;;;;;;;;;;;;;;;;;;4999568;28;19926;-58
2022/11/26 01:25:07;;;;;;;;;;;;;;;;;;5001026;28;20884;-58
2022/11/26 01:27:33;;;;;;;;;;;;;;;;;;4996251;28;24922;-59
2022/11/26 01:29:59;;;;;;;;;;;;;;;;;;4988590;28;19917;-58
2022/11/26 01:32:24;;;;;;;;;;;;;;;;;;4995404;28;20283;-59
2022/11/26 01:34:50;;;;;;;;;;;;;;;;;;4989709;28;19925;-58
2022/11/26 01:37:16;;;;;;;;;;;;;;;;;;4997809;28;20519;-58
2022/11/26 01:39:42;;;;;;;;;;;;;;;;;;4979784;28;19913;-58
2022/11/26 01:42:08;;;;;;;;;;;;;;;;;;4972048;28;19932;-58
2022/11/26 01:44:34;;;;;;;;;;;;;;;;;;5002193;28;19978;-59
2022/11/26 01:47:00;;;;;;;;;;;;;;;;;;4991810;28;19925;-58
2022/11/26 01:49:25;;;;;;;;;;;;;;;;;;4994145;28;20308;-58
2022/11/26 01:51:51;;;;;;;;;;;;;;;;;;4995596;28;19929;-58
2022/11/26 01:54:17;;;;;;;;;;;;;;;;;;4991287;28;20511;-59
2022/11/26 01:56:43;;;;;;;;;;;;;;;;;;4986553;28;19995;-58
2022/11/26 01:59:09;;;;;;;;;;;;;;;;;;4983199;28;20439;-58
2022/11/26 02:01:35;;;;;;;;;;;;;;;;;;4989180;28;19987;-58
2022/11/26 02:04:01;;;;;;;;;;;;;;;;;;4984596;28;19926;-58
2022/11/26 02:06:27;;;;;;;;;;;;;;;;;;4975378;28;19921;-59
2022/11/26 02:08:53;;;;;;;;;;;;;;;;;;4989606;28;19957;-58
2022/11/26 02:11:18;;;;;;;;;;;;;;;;;;4990052;28;20864;-58
2022/11/26 02:13:44;;;;;;;;;;;;;;;;;;4982336;28;19922;-58
2022/11/26 02:16:10;;;;;;;;;;;;;;;;;;4992813;28;19924;-58
2022/11/26 02:18:36;;;;;;;;;;;;;;;;;;4995049;28;20286;-58
2022/11/26 02:21:02;;;;;;;;;;;;;;;;;;4992486;28;19975;-58
2022/11/26 02:23:28;;;;;;;;;;;;;;;;;;4992844;28;19928;-59
2022/11/26 02:25:54;;;;;;;;;;;;;;;;;;4979286;28;20438;-58
2022/11/26 02:28:20;;;;;;;;;;;;;;;;;;4988724;28;19966;-58
2022/11/26 02:30:45;;;;;;;;;;;;;;;;;;4998385;28;19928;-58
2022/11/26 02:33:11;;;;;;;;;;;;;;;;;;4998462;28;19960;-59
2022/11/26 02:35:37;;;;;;;;;;;;;;;;;;4979975;28;19927;-58
2022/11/26 02:38:03;;;;;;;;;;;;;;;;;;4990045;28;20020;-58
2022/11/26 02:40:29;;;;;;;;;;;;;;;;;;4992592;28;19925;-58
2022/11/26 02:42:55;;;;;;;;;;;;;;;;;;4988818;28;20449;-58
2022/11/26 02:45:21;;;;;;;;;;;;;;;;;;5003161;28;21373;-58
2022/11/26 02:47:47;;;;;;;;;;;;;;;;;;4974581;28;20000;-58
2022/11/26 02:50:13;;;;;;;;;;;;;;;;;;4984108;28;19925;-58
2022/11/26 02:52:39;;;;;;;;;;;;;;;;;;4970286;28;20161;-59
2022/11/26 02:55:05;;;;;;;;;;;;;;;;;;4976544;28;19976;-58
2022/11/26 02:57:30;;;;;;;;;;;;;;;;;;4975310;28;20352;-58
2022/11/26 02:59:56;;;;;;;;;;;;;;;;;;5003384;28;19924;-58
2022/11/26 03:02:23;;;;;;;;;;;;;;;;;;4999556;28;21380;-58
2022/11/26 03:04:49;;;;;;;;;;;;;;;;;;4989231;28;20387;-58
2022/11/26 03:07:15;;;;;;;;;;;;;;;;;;4990923;28;19921;-58
2022/11/26 03:09:41;;;;;;;;;;;;;;;;;;5000962;28;20534;-58
2022/11/26 03:12:07;;;;;;;;;;;;;;;;;;4968981;28;19929;-58
2022/11/26 03:14:32;;;;;;;;;;;;;;;;;;5004134;28;19952;-59
2022/11/26 03:16:58;;;;;;;;;;;;;;;;;;4996823;28;19949;-59
2022/11/26 03:19:24;;;;;;;;;;;;;;;;;;4998369;28;19921;-58
2022/11/26 03:21:50;;;;;;;;;;;;;;;;;;4990168;28;19979;-58
2022/11/26 03:24:16;;;;;;;;;;;;;;;;;;4990557;28;19947;-58
2022/11/26 03:26:42;;;;;;;;;;;;;;;;;;4998883;28;20011;-58
2022/11/26 03:29:08;;;;;;;;;;;;;;;;;;4976915;28;20306;-58
2022/11/26 03:31:33;;;;;;;;;;;;;;;;;;4990969;28;19929;-58
2022/11/26 03:33:59;;;;;;;;;;;;;;;;;;4997121;28;20455;-58
2022/11/26 03:36:25;;;;;;;;;;;;;;;;;;4987500;28;20460;-58
2022/11/26 03:38:51;;;;;;;;;;;;;;;;;;4995263;28;20446;-58
2022/11/26 03:41:17;;;;;;;;;;;;;;;;;;4991190;28;19930;-58
2022/11/26 03:43:45;;;;;;;;;;;;;;;;;;4995546;28;21392;-58
2022/11/26 03:46:11;;;;;;;;;;;;;;;;;;4991826;28;20375;-58
2022/11/26 03:48:37;;;;;;;;;;;;;;;;;;4998321;28;19975;-58
2022/11/26 03:51:02;;;;;;;;;;;;;;;;;;4995201;28;22120;-58
2022/11/26 03:53:28;;;;;;;;;;;;;;;;;;4965885;28;20022;-58
2022/11/26 03:55:54;;;;;;;;;;;;;;;;;;5001996;28;19925;-59
2022/11/26 03:58:20;;;;;;;;;;;;;;;;;;4991231;28;20456;-58
2022/11/26 04:00:46;;;;;;;;;;;;;;;;;;4984380;28;19920;-59
2022/11/26 04:03:12;;;;;;;;;;;;;;;;;;4974526;28;19940;-58
2022/11/26 04:05:38;;;;;;;;;;;;;;;;;;4974089;28;19960;-58
2022/11/26 04:08:04;;;;;;;;;;;;;;;;;;4991853;28;20670;-59
2022/11/26 04:10:29;;;;;;;;;;;;;;;;;;5003236;28;19926;-59
2022/11/26 04:12:55;;;;;;;;;;;;;;;;;;4989768;28;20319;-58
2022/11/26 04:15:21;;;;;;;;;;;;;;;;;;4992139;28;19926;-58
2022/11/26 04:17:47;;;;;;;;;;;;;;;;;;5000545;28;19968;-58
2022/11/26 04:20:13;;;;;;;;;;;;;;;;;;5002772;28;20412;-58
2022/11/26 04:22:39;;;;;;;;;;;;;;;;;;4994246;28;19967;-59
2022/11/26 04:25:05;;;;;;;;;;;;;;;;;;4996107;28;20314;-58
2022/11/26 04:27:31;;;;;;;;;;;;;;;;;;4999306;28;20018;-59
2022/11/26 04:29:57;;;;;;;;;;;;;;;;;;4995965;28;19926;-58
2022/11/26 04:32:22;;;;;;;;;;;;;;;;;;4994840;28;20032;-58
2022/11/26 04:34:48;;;;;;;;;;;;;;;;;;4992396;28;19917;-58
2022/11/26 04:37:14;;;;;;;;;;;;;;;;;;4988933;28;19932;-58
2022/11/26 04:39:40;;;;;;;;;;;;;;;;;;5005622;28;20409;-58
2022/11/26 04:42:06;;;;;;;;;;;;;;;;;;5003506;28;19921;-59
2022/11/26 04:44:32;;;;;;;;;;;;;;;;;;4997071;28;20016;-58
2022/11/26 04:46:58;;;;;;;;;;;;;;;;;;4985659;28;20370;-58
2022/11/26 04:49:23;;;;;;;;;;;;;;;;;;4994465;28;19962;-58
2022/11/26 04:51:49;;;;;;;;;;;;;;;;;;4993732;28;19933;-59
2022/11/26 04:54:15;;;;;;;;;;;;;;;;;;4990407;28;20449;-58
2022/11/26 04:56:41;;;;;;;;;;;;;;;;;;4988879;28;19935;-59
2022/11/26 04:59:07;;;;;;;;;;;;;;;;;;4970576;28;19929;-58
2022/11/26 05:01:33;;;;;;;;;;;;;;;;;;4990389;28;19948;-58
2022/11/26 05:03:59;;;;;;;;;;;;;;;;;;5002470;28;19938;-58
2022/11/26 05:06:25;;;;;;;;;;;;;;;;;;4986832;28;19932;-58
2022/11/26 05:08:50;;;;;;;;;;;;;;;;;;5000814;28;19929;-58
2022/11/26 05:11:16;;;;;;;;;;;;;;;;;;4999187;28;20056;-58
2022/11/26 05:13:42;;;;;;;;;;;;;;;;;;4992382;28;20007;-58
2022/11/26 05:16:08;;;;;;;;;;;;;;;;;;4993577;28;19925;-58
2022/11/26 05:18:34;;;;;;;;;;;;;;;;;;4984591;28;19924;-58
2022/11/26 05:21:00;;;;;;;;;;;;;;;;;;4995705;28;19925;-58
2022/11/26 05:23:26;;;;;;;;;;;;;;;;;;4989900;28;19925;-59
2022/11/26 05:25:52;;;;;;;;;;;;;;;;;;4995117;28;20012;-58
2022/11/26 05:28:17;;;;;;;;;;;;;;;;;;4988469;28;19929;-58
2022/11/26 05:30:43;;;;;;;;;;;;;;;;;;5001960;28;19926;-57
2022/11/26 05:33:09;;;;;;;;;;;;;;;;;;5010762;28;20254;-58
2022/11/26 05:35:35;;;;;;;;;;;;;;;;;;4983241;28;19948;-58
2022/11/26 05:38:01;;;;;;;;;;;;;;;;;;4987512;28;20390;-59
2022/11/26 05:40:27;;;;;;;;;;;;;;;;;;4995851;28;20079;-59
2022/11/26 05:42:53;;;;;;;;;;;;;;;;;;4976734;28;19926;-59
2022/11/26 05:45:18;;;;;;;;;;;;;;;;;;4997645;28;19964;-59
2022/11/26 05:47:45;;;;;;;;;;;;;;;;;;4985690;28;19925;-58
2022/11/26 05:50:11;;;;;;;;;;;;;;;;;;4984030;28;20409;-59
2022/11/26 05:52:37;;;;;;;;;;;;;;;;;;4978272;28;20015;-58
2022/11/26 05:55:02;;;;;;;;;;;;;;;;;;4984425;28;19955;-58
2022/11/26 05:57:28;;;;;;;;;;;;;;;;;;4993887;28;19945;-59
2022/11/26 05:59:54;;;;;;;;;;;;;;;;;;4984627;28;19934;-58
2022/11/26 06:02:20;;;;;;;;;;;;;;;;;;4991257;28;20367;-58
2022/11/26 06:04:46;;;;;;;;;;;;;;;;;;4992713;28;19933;-59
2022/11/26 06:07:12;;;;;;;;;;;;;;;;;;4986220;28;19928;-59
2022/11/26 06:09:38;;;;;;;;;;;;;;;;;;4998406;28;20440;-59
2022/11/26 06:12:03;;;;;;;;;;;;;;;;;;4987088;28;20439;-59
2022/11/26 06:14:29;;;;;;;;;;;;;;;;;;4973350;28;19930;-58
2022/11/26 06:16:55;;;;;;;;;;;;;;;;;;4987547;28;19933;-58
2022/11/26 06:19:21;;;;;;;;;;;;;;;;;;4989776;28;19922;-58
2022/11/26 06:21:47;;;;;;;;;;;;;;;;;;4984587;28;19936;-59
2022/11/26 06:24:13;;;;;;;;;;;;;;;;;;4988994;28;19921;-59
2022/11/26 06:26:39;;;;;;;;;;;;;;;;;;4979355;28;20424;-58
2022/11/26 06:29:04;;;;;;;;;;;;;;;;;;4989553;28;19921;-58
2022/11/26 06:31:31;;;;;;;;;;;;;;;;;;4991892;28;19936;-58
2022/11/26 06:33:57;;;;;;;;;;;;;;;;;;4996265;28;19926;-59
2022/11/26 06:36:23;;;;;;;;;;;;;;;;;;4993694;28;19925;-59
2022/11/26 06:38:49;;;;;;;;;;;;;;;;;;4997815;28;19968;-58
2022/11/26 06:41:15;;;;;;;;;;;;;;;;;;4988924;28;20387;-58
2022/11/26 06:43:41;;;;;;;;;;;;;;;;;;5001958;28;20067;-58
2022/11/26 06:46:07;;;;;;;;;;;;;;;;;;4992047;28;19921;-58
2022/11/26 06:48:32;;;;;;;;;;;;;;;;;;4991210;28;22169;-59
2022/11/26 06:50:58;;;;;;;;;;;;;;;;;;4983221;28;19941;-58
2022/11/26 06:53:24;;;;;;;;;;;;;;;;;;4991019;28;20057;-58
2022/11/26 06:55:50;;;;;;;;;;;;;;;;;;4991354;28;20387;-58
2022/11/26 06:58:16;;;;;;;;;;;;;;;;;;4994294;28;19965;-58
2022/11/26 07:00:42;;;;;;;;;;;;;;;;;;4994953;28;19924;-58
2022/11/26 07:03:08;;;;;;;;;;;;;;;;;;4996337;28;19929;-58
2022/11/26 07:05:34;;;;;;;;;;;;;;;;;;4989156;28;20024;-58
2022/11/26 07:08:00;;;;;;;;;;;;;;;;;;4998698;28;19929;-58
2022/11/26 07:10:26;;;;;;;;;;;;;;;;;;4993166;28;19925;-59
2022/11/26 07:12:51;;;;;;;;;;;;;;;;;;4989806;28;20633;-58
2022/11/26 07:15:17;;;;;;;;;;;;;;;;;;4990227;28;19921;-59
2022/11/26 07:17:43;;;;;;;;;;;;;;;;;;4999006;28;19966;-59
2022/11/26 07:20:09;;;;;;;;;;;;;;;;;;5004409;28;19968;-59
2022/11/26 07:22:35;;;;;;;;;;;;;;;;;;4996606;28;20000;-59
2022/11/26 07:25:01;;;;;;;;;;;;;;;;;;5000323;28;20074;-59
2022/11/26 07:27:27;;;;;;;;;;;;;;;;;;4981129;28;19921;-59
2022/11/26 07:29:53;;;;;;;;;;;;;;;;;;4985631;28;19980;-58
2022/11/26 07:32:18;;;;;;;;;;;;;;;;;;4996439;28;19928;-58
2022/11/26 07:34:44;;;;;;;;;;;;;;;;;;4995568;28;20021;-58
2022/11/26 07:37:10;;;;;;;;;;;;;;;;;;4966325;28;19922;-58
2022/11/26 07:39:36;;;;;;;;;;;;;;;;;;4995626;28;20297;-58
2022/11/26 07:42:02;;;;;;;;;;;;;;;;;;4974179;28;19925;-58
2022/11/26 07:44:28;;;;;;;;;;;;;;;;;;5004379;28;19928;-59
2022/11/26 07:46:54;;;;;;;;;;;;;;;;;;5003934;28;19925;-58
2022/11/26 07:49:19;;;;;;;;;;;;;;;;;;4994447;28;20405;-59
2022/11/26 07:51:45;;;;;;;;;;;;;;;;;;4999989;28;20286;-59
2022/11/26 07:54:11;;;;;;;;;;;;;;;;;;4981269;28;19926;-58
2022/11/26 07:56:37;;;;;;;;;;;;;;;;;;4971956;28;19949;-59
2022/11/26 07:59:03;;;;;;;;;;;;;;;;;;4983760;28;19926;-59
2022/11/26 08:01:29;;;;;;;;;;;;;;;;;;4979573;28;19921;-59
2022/11/26 08:03:55;;;;;;;;;;;;;;;;;;5005244;28;19924;-58
2022/11/26 08:06:21;;;;;;;;;;;;;;;;;;4990729;28;19921;-59
2022/11/26 08:08:47;;;;;;;;;;;;;;;;;;4996474;28;19970;-59
2022/11/26 08:11:13;;;;;;;;;;;;;;;;;;4994298;28;19924;-58
2022/11/26 08:13:39;;;;;;;;;;;;;;;;;;4993261;28;19922;-59
2022/11/26 08:16:04;;;;;;;;;;;;;;;;;;4989743;28;20863;-59
2022/11/26 08:18:30;;;;;;;;;;;;;;;;;;4998434;28;19926;-59
2022/11/26 08:20:56;;;;;;;;;;;;;;;;;;5002269;28;19928;-59
2022/11/26 08:23:22;;;;;;;;;;;;;;;;;;4990502;28;20378;-58
2022/11/26 08:25:48;;;;;;;;;;;;;;;;;;4976376;28;19935;-59
2022/11/26 08:28:14;;;;;;;;;;;;;;;;;;4986418;28;19925;-58
2022/11/26 08:30:40;;;;;;;;;;;;;;;;;;4969371;28;19920;-58
2022/11/26 08:33:05;;;;;;;;;;;;;;;;;;4984865;28;19929;-59
2022/11/26 08:35:31;;;;;;;;;;;;;;;;;;4977003;28;20541;-58
2022/11/26 08:37:57;;;;;;;;;;;;;;;;;;4974873;28;19977;-58
2022/11/26 08:40:23;;;;;;;;;;;;;;;;;;4991640;28;19925;-58
2022/11/26 08:42:49;;;;;;;;;;;;;;;;;;4989457;28;20447;-59
2022/11/26 08:45:15;;;;;;;;;;;;;;;;;;4994073;28;19978;-59
2022/11/26 08:47:41;;;;;;;;;;;;;;;;;;4973559;28;19918;-59
2022/11/26 08:50:06;;;;;;;;;;;;;;;;;;4964521;28;19957;-59
2022/11/26 08:52:32;;;;;;;;;;;;;;;;;;4974193;28;20299;-50
2022/11/26 08:54:58;;;;;;;;;;;;;;;;;;4997773;28;20040;-51
2022/11/26 08:57:24;;;;;;;;;;;;;;;;;;4999311;28;19925;-50
2022/11/26 08:59:50;;;;;;;;;;;;;;;;;;4956470;28;19926;-50
2022/11/26 09:02:16;;;;;;;;;;;;;;;;;;4957960;28;20469;-51
2022/11/26 09:04:42;;;;;;;;;;;;;;;;;;4984812;28;19925;-50
2022/11/26 09:07:08;;;;;;;;;;;;;;;;;;4955694;28;20367;-52
2022/11/26 09:09:34;;;;;;;;;;;;;;;;;;4974281;28;19987;-57
2022/11/26 09:12:00;;;;;;;;;;;;;;;;;;4972367;28;19926;-56
2022/11/26 09:14:26;;;;;;;;;;;;;;;;;;4958256;28;19945;-57
2022/11/26 09:16:52;;;;;;;;;;;;;;;;;;4959421;28;20007;-57
2022/11/26 09:19:18;;;;;;;;;;;;;;;;;;4961439;28;19929;-57
2022/11/26 09:21:44;;;;;;;;;;;;;;;;;;4954479;28;19922;-57
2022/11/26 09:24:10;;;;;;;;;;;;;;;;;;4951718;28;22257;-56
2022/11/26 09:26:36;;;;;;;;;;;;;;;;;;4959683;28;20024;-56
2022/11/26 09:29:02;;;;;;;;;;;;;;;;;;4955994;28;19956;-57
2022/11/26 09:31:28;;;;;;;;;;;;;;;;;;4970236;28;20293;-56
2022/11/26 09:33:53;;;;;;;;;;;;;;;;;;4985710;28;19928;-57
2022/11/26 09:36:19;;;;;;;;;;;;;;;;;;4946404;28;19932;-56
2022/11/26 09:38:45;;;;;;;;;;;;;;;;;;4955936;28;20002;-56
2022/11/26 09:41:11;;;;;;;;;;;;;;;;;;4937778;28;19919;-57
2022/11/26 09:43:37;;;;;;;;;;;;;;;;;;4947858;28;20039;-56
2022/11/26 09:46:03;;;;;;;;;;;;;;;;;;4944752;28;19925;-56
2022/11/26 09:48:29;;;;;;;;;;;;;;;;;;4956149;28;21397;-56
2022/11/26 09:50:55;;;;;;;;;;;;;;;;;;4947806;28;19926;-57
2022/11/26 09:53:21;;;;;;;;;;;;;;;;;;4940431;28;20007;-57
2022/11/26 09:55:46;;;;;;;;;;;;;;;;;;4968622;28;19932;-57
2022/11/26 09:58:12;;;;;;;;;;;;;;;;;;4961967;28;20001;-56
2022/11/26 10:00:38;;;;;;;;;;;;;;;;;;5005958;28;19925;-57
2022/11/26 10:03:04;;;;;;;;;;;;;;;;;;4994245;28;20454;-57
2022/11/26 10:05:30;;;;;;;;;;;;;;;;;;5009120;28;20424;-56
2022/11/26 10:07:56;;;;;;;;;;;;;;;;;;5001263;28;19932;-56
2022/11/26 10:10:22;;;;;;;;;;;;;;;;;;5007313;28;20011;-57
2022/11/26 10:12:48;;;;;;;;;;;;;;;;;;5006838;28;19921;-57
2022/11/26 10:15:14;;;;;;;;;;;;;;;;;;4990924;28;20294;-56
2022/11/26 10:17:40;;;;;;;;;;;;;;;;;;4998855;28;19936;-56
2022/11/26 10:20:06;;;;;;;;;;;;;;;;;;4992329;28;20248;-56
2022/11/26 10:22:32;;;;;;;;;;;;;;;;;;5004443;28;19917;-57
2022/11/26 10:24:58;;;;;;;;;;;;;;;;;;5015001;28;19946;-57
2022/11/26 10:27:25;;;;;;;;;;;;;;;;;;5013758;28;19935;-57
2022/11/26 10:29:51;;;;;;;;;;;;;;;;;;5011856;28;19921;-57
2022/11/26 10:32:17;;;;;;;;;;;;;;;;;;5009377;28;20369;-57
2022/11/26 10:34:43;;;;;;;;;;;;;;;;;;5008850;28;19917;-57
2022/11/26 10:37:09;;;;;;;;;;;;;;;;;;5004311;28;20283;-56
2022/11/26 10:39:35;;;;;;;;;;;;;;;;;;5013260;28;20098;-56
2022/11/26 10:42:01;;;;;;;;;;;;;;;;;;5016933;28;19917;-53
2022/11/26 10:44:27;;;;;;;;;;;;;;;;;;4998719;28;20481;-57
2022/11/26 10:46:52;;;;;;;;;;;;;;;;;;5007050;28;20040;-58
2022/11/26 10:49:18;;;;;;;;;;;;;;;;;;5014997;28;20110;-58
2022/11/26 10:51:44;;;;;;;;;;;;;;;;;;5009004;28;20302;-58
2022/11/26 10:54:10;;;;;;;;;;;;;;;;;;5018341;28;19987;-57
2022/11/26 10:56:36;;;;;;;;;;;;;;;;;;5011610;28;20733;-57
2022/11/26 10:59:02;;;;;;;;;;;;;;;;;;5012884;28;20308;-58
2022/11/26 11:01:28;;;;;;;;;;;;;;;;;;5008370;28;19917;-59
2022/11/26 11:03:54;;;;;;;;;;;;;;;;;;5017924;28;19986;-57
2022/11/26 11:06:19;;;;;;;;;;;;;;;;;;5011753;28;19924;-57
2022/11/26 11:08:45;;;;;;;;;;;;;;;;;;5020650;28;19921;-57
2022/11/26 11:11:11;;;;;;;;;;;;;;;;;;5001340;28;19928;-57
2022/11/26 11:13:37;;;;;;;;;;;;;;;;;;5012463;28;19924;-58
2022/11/26 11:16:03;;;;;;;;;;;;;;;;;;5014981;28;20055;-57
2022/11/26 11:18:29;;;;;;;;;;;;;;;;;;5021252;28;19921;-57
2022/11/26 11:20:56;;;;;;;;;;;;;;;;;;5015201;28;20241;-57
2022/11/26 11:23:22;;;;;;;;;;;;;;;;;;5017311;28;20130;-57
2022/11/26 11:25:48;;;;;;;;;;;;;;;;;;5015808;28;20420;-58
2022/11/26 11:28:14;;;;;;;;;;;;;;;;;;5016042;28;21113;-56
2022/11/26 11:30:41;;;;;;;;;;;;;;;;;;5019890;28;19952;-57
2022/11/26 11:33:07;;;;;;;;;;;;;;;;;;5004852;28;19925;-57
2022/11/26 11:35:33;;;;;;;;;;;;;;;;;;5014912;28;19928;-57
2022/11/26 11:37:59;;;;;;;;;;;;;;;;;;5007476;28;19929;-57
2022/11/26 11:40:26;;;;;;;;;;;;;;;;;;5019070;28;20501;-57
2022/11/26 11:42:52;;;;;;;;;;;;;;;;;;5016493;28;20291;-58
2022/11/26 11:45:18;;;;;;;;;;;;;;;;;;5008436;28;19921;-57
2022/11/26 11:47:44;;;;;;;;;;;;;;;;;;5007311;28;19964;-57
2022/11/26 11:50:10;;;;;;;;;;;;;;;;;;5012378;28;19927;-57
2022/11/26 11:52:36;;;;;;;;;;;;;;;;;;5018763;28;19925;-57
2022/11/26 11:55:02;;;;;;;;;;;;;;;;;;5014451;28;19921;-57
2022/11/26 11:57:28;;;;;;;;;;;;;;;;;;5014966;28;19921;-57
2022/11/26 12:00:09;;;;;;;;;;;;;;;;;;5015507;28;19994;-57
2022/11/26 12:02:36;;;;;;;;;;;;;;;;;;5001601;28;20377;-56
2022/11/26 12:05:02;;;;;;;;;;;;;;;;;;5018518;28;19964;-57
2022/11/26 12:07:28;;;;;;;;;;;;;;;;;;5014254;28;19919;-57
2022/11/26 12:09:54;;;;;;;;;;;;;;;;;;5009200;28;20080;-57
2022/11/26 12:12:20;;;;;;;;;;;;;;;;;;5013284;28;19920;-58
2022/11/26 12:14:46;;;;;;;;;;;;;;;;;;5012198;28;19928;-58
2022/11/26 12:17:12;;;;;;;;;;;;;;;;;;5012994;28;19921;-57
2022/11/26 12:19:38;;;;;;;;;;;;;;;;;;5017600;28;19939;-57
2022/11/26 12:22:07;;;;;;;;;;;;;;;;;;5014987;28;19925;-57
2022/11/26 12:24:33;;;;;;;;;;;;;;;;;;5008644;28;19921;-57
2022/11/26 12:26:59;;;;;;;;;;;;;;;;;;5018892;28;19975;-57
2022/11/26 12:29:25;;;;;;;;;;;;;;;;;;5008827;28;20224;-57
2022/11/26 12:31:50;;;;;;;;;;;;;;;;;;5014889;28;19932;-56
2022/11/26 12:34:16;;;;;;;;;;;;;;;;;;5004352;28;19928;-58
2022/11/26 12:36:42;;;;;;;;;;;;;;;;;;4999568;28;19970;-58
2022/11/26 12:39:16;;;;;;;;;;;;;;;;;;5003039;28;20382;-57
2022/11/26 12:41:42;;;;;;;;;;;;;;;;;;4992240;28;20378;-58
2022/11/26 12:44:08;;;;;;;;;;;;;;;;;;4999972;28;19929;-56
2022/11/26 12:46:34;;;;;;;;;;;;;;;;;;5009045;28;19928;-57
2022/11/26 12:49:00;;;;;;;;;;;;;;;;;;5014422;28;19921;-57
2022/11/26 12:51:26;;;;;;;;;;;;;;;;;;5012701;28;20352;-57
2022/11/26 12:53:52;;;;;;;;;;;;;;;;;;5013588;28;19917;-57
2022/11/26 12:56:17;;;;;;;;;;;;;;;;;;4993913;28;20006;-57
2022/11/26 12:58:43;;;;;;;;;;;;;;;;;;4991110;28;20282;-57
2022/11/26 13:01:09;;;;;;;;;;;;;;;;;;5013810;28;20429;-56
2022/11/26 13:03:35;;;;;;;;;;;;;;;;;;5000880;28;20021;-56
2022/11/26 13:06:01;;;;;;;;;;;;;;;;;;4986248;28;19963;-57
2022/11/26 13:08:27;;;;;;;;;;;;;;;;;;5007626;28;19917;-57
2022/11/26 13:10:53;;;;;;;;;;;;;;;;;;5017679;28;20433;-57
2022/11/26 13:13:18;;;;;;;;;;;;;;;;;;5014402;28;19932;-57
2022/11/26 13:15:44;;;;;;;;;;;;;;;;;;4992992;28;19925;-58
2022/11/26 13:18:10;;;;;;;;;;;;;;;;;;5008546;28;19951;-57
2022/11/26 13:20:36;;;;;;;;;;;;;;;;;;5019148;28;19925;-57
2022/11/26 13:23:02;;;;;;;;;;;;;;;;;;5004919;28;19923;-57
2022/11/26 13:25:28;;;;;;;;;;;;;;;;;;4993633;28;20544;-57
2022/11/26 13:27:54;;;;;;;;;;;;;;;;;;5015471;28;20333;-57
2022/11/26 13:30:20;;;;;;;;;;;;;;;;;;5008437;28;20070;-57
2022/11/26 13:32:46;;;;;;;;;;;;;;;;;;4988173;28;19925;-58
2022/11/26 13:35:12;;;;;;;;;;;;;;;;;;5001559;28;19917;-56
2022/11/26 13:37:38;;;;;;;;;;;;;;;;;;5006904;28;20012;-57
2022/11/26 13:40:04;;;;;;;;;;;;;;;;;;5003608;28;20409;-57
2022/11/26 13:42:29;;;;;;;;;;;;;;;;;;5009867;28;19920;-57
2022/11/26 13:44:55;;;;;;;;;;;;;;;;;;5000170;28;19964;-58
2022/11/26 13:47:21;;;;;;;;;;;;;;;;;;5009215;28;20582;-57
2022/11/26 13:49:47;;;;;;;;;;;;;;;;;;5001028;28;19924;-58
2022/11/26 13:52:13;;;;;;;;;;;;;;;;;;5011631;28;20201;-57
2022/11/26 13:54:39;;;;;;;;;;;;;;;;;;4997690;28;19951;-58
2022/11/26 13:57:05;;;;;;;;;;;;;;;;;;4988112;28;20401;-57
2022/11/26 13:59:31;;;;;;;;;;;;;;;;;;5010469;28;19927;-56
2022/11/26 14:01:57;;;;;;;;;;;;;;;;;;5000535;28;19925;-56
2022/11/26 14:04:22;;;;;;;;;;;;;;;;;;4989986;28;20412;-57
2022/11/26 14:06:48;;;;;;;;;;;;;;;;;;4997763;28;19921;-58
2022/11/26 14:09:14;;;;;;;;;;;;;;;;;;4996995;28;20283;-57
2022/11/26 14:11:40;;;;;;;;;;;;;;;;;;5014260;28;20019;-56
2022/11/26 14:14:06;;;;;;;;;;;;;;;;;;5000072;28;20044;-57
2022/11/26 14:16:32;;;;;;;;;;;;;;;;;;5019643;28;19928;-57
2022/11/26 14:18:59;;;;;;;;;;;;;;;;;;5016918;28;19917;-57
2022/11/26 14:21:25;;;;;;;;;;;;;;;;;;5017515;28;19924;-57
2022/11/26 14:23:51;;;;;;;;;;;;;;;;;;5016197;28;19928;-57
2022/11/26 14:26:17;;;;;;;;;;;;;;;;;;5016852;28;20370;-56
2022/11/26 14:28:43;;;;;;;;;;;;;;;;;;4992625;28;19917;-57
2022/11/26 14:31:09;;;;;;;;;;;;;;;;;;5005876;28;19921;-58
2022/11/26 14:33:35;;;;;;;;;;;;;;;;;;4994101;28;20039;-57
2022/11/26 14:36:01;;;;;;;;;;;;;;;;;;5008129;28;19921;-57
2022/11/26 14:38:27;;;;;;;;;;;;;;;;;;4998472;28;20478;-57
2022/11/26 14:40:52;;;;;;;;;;;;;;;;;;5001400;28;19920;-56
2022/11/26 14:43:18;;;;;;;;;;;;;;;;;;5006124;28;19912;-57
2022/11/26 14:45:44;;;;;;;;;;;;;;;;;;4998480;28;19927;-58
2022/11/26 14:48:10;;;;;;;;;;;;;;;;;;4999291;28;19924;-57
2022/11/26 14:50:36;;;;;;;;;;;;;;;;;;4998390;28;19921;-58
2022/11/26 14:53:02;;;;;;;;;;;;;;;;;;5002543;28;20002;-58
2022/11/26 14:55:29;;;;;;;;;;;;;;;;;;5011022;28;19982;-57
2022/11/26 14:57:54;;;;;;;;;;;;;;;;;;5016489;28;19928;-58
2022/11/26 15:00:20;;;;;;;;;;;;;;;;;;5000987;28;19917;-57
2022/11/26 15:02:46;;;;;;;;;;;;;;;;;;4992810;28;19987;-58
2022/11/26 15:05:12;;;;;;;;;;;;;;;;;;5004984;28;19917;-56
2022/11/26 15:07:38;;;;;;;;;;;;;;;;;;5001976;28;20008;-57
2022/11/26 15:10:04;;;;;;;;;;;;;;;;;;4992551;28;19925;-57
2022/11/26 15:12:30;;;;;;;;;;;;;;;;;;5012063;28;19928;-57
2022/11/26 15:14:57;;;;;;;;;;;;;;;;;;5007010;28;19929;-58
2022/11/26 15:17:23;;;;;;;;;;;;;;;;;;5005016;28;19932;-57
2022/11/26 15:19:51;;;;;;;;;;;;;;;;;;5016446;28;20366;-57
2022/11/26 15:22:17;;;;;;;;;;;;;;;;;;5009077;28;25118;-57
2022/11/26 15:24:43;;;;;;;;;;;;;;;;;;5003418;28;19920;-57
2022/11/26 15:27:09;;;;;;;;;;;;;;;;;;5004400;28;19917;-57
2022/11/26 15:29:35;;;;;;;;;;;;;;;;;;5008589;28;20003;-57
2022/11/26 15:32:01;;;;;;;;;;;;;;;;;;5003169;28;20998;-58
2022/11/26 15:34:27;;;;;;;;;;;;;;;;;;5018397;28;19921;-56
2022/11/26 15:36:53;;;;;;;;;;;;;;;;;;5007727;28;19917;-56
2022/11/26 15:39:18;;;;;;;;;;;;;;;;;;5012738;28;20366;-57
2022/11/26 15:41:44;;;;;;;;;;;;;;;;;;5017747;28;20508;-56
2022/11/26 15:44:10;;;;;;;;;;;;;;;;;;5011085;28;20386;-56
2022/11/26 15:46:36;;;;;;;;;;;;;;;;;;5012863;28;19921;-56
2022/11/26 15:49:02;;;;;;;;;;;;;;;;;;5009895;28;19947;-58
2022/11/26 15:51:29;;;;;;;;;;;;;;;;;;5010414;28;19917;-57
2022/11/26 15:53:55;;;;;;;;;;;;;;;;;;4988172;28;19921;-57
2022/11/26 15:56:21;;;;;;;;;;;;;;;;;;5000866;28;20289;-57
2022/11/26 15:58:47;;;;;;;;;;;;;;;;;;5011041;28;19921;-58
2022/11/26 16:01:13;;;;;;;;;;;;;;;;;;4996054;28;20370;-57
2022/11/26 16:03:40;;;;;;;;;;;;;;;;;;5013047;28;22696;-57
2022/11/26 16:06:09;;;;;;;;;;;;;;;;;;5016874;28;21189;-57
2022/11/26 16:08:35;;;;;;;;;;;;;;;;;;5009522;28;20432;-57
2022/11/26 16:11:01;;;;;;;;;;;;;;;;;;5008107;28;19921;-56
2022/11/26 16:13:26;;;;;;;;;;;;;;;;;;5003551;28;19933;-57
2022/11/26 16:15:52;;;;;;;;;;;;;;;;;;5010573;28;20370;-56
2022/11/26 16:18:18;;;;;;;;;;;;;;;;;;5016768;28;20023;-57
2022/11/26 16:20:44;;;;;;;;;;;;;;;;;;5015815;28;19971;-58
2022/11/26 16:23:10;;;;;;;;;;;;;;;;;;4999971;28;20417;-57
2022/11/26 16:25:36;;;;;;;;;;;;;;;;;;5008419;28;19921;-57
2022/11/26 16:28:02;;;;;;;;;;;;;;;;;;4990609;28;21647;-58
2022/11/26 16:30:28;;;;;;;;;;;;;;;;;;5002942;28;19921;-57
2022/11/26 16:32:54;;;;;;;;;;;;;;;;;;5002666;28;20728;-57
2022/11/26 16:35:20;;;;;;;;;;;;;;;;;;5017805;28;19925;-57
2022/11/26 16:37:46;;;;;;;;;;;;;;;;;;5010176;28;19925;-57